createdAt,value
2019-05-17T00:01:07.406Z,75.42
2019-05-17T00:05:31.825Z,75.58
2019-05-17T00:09:57.088Z,75.36
2019-05-17T00:14:21.662Z,75.51
2019-05-17T00:18:46.368Z,75.54
2019-05-17T00:23:10.365Z,75.63
2019-05-17T00:27:36.607Z,75.78
2019-05-17T00:32:01.515Z,75.74
2019-05-17T00:36:26.973Z,75.56
2019-05-17T00:40:51.567Z,75.65
2019-05-17T00:45:17.636Z,75.78
2019-05-17T00:49:41.657Z,75.68
2019-05-17T00:54:06.878Z,75.70
2019-05-17T00:58:31.049Z,75.62
2019-05-17T01:02:57.214Z,75.80
2019-05-17T01:07:21.795Z,76.04
2019-05-17T01:11:47.538Z,75.79
2019-05-17T01:16:11.819Z,75.70
2019-05-17T01:20:37.002Z,75.79
2019-05-17T01:25:02.413Z,75.94
2019-05-17T01:29:28.518Z,75.76
2019-05-17T01:33:52.803Z,75.72
2019-05-17T01:38:17.779Z,75.90
2019-05-17T01:42:42.717Z,75.99
2019-05-17T01:47:07.531Z,76.07
2019-05-17T01:51:31.415Z,76.04
2019-05-17T01:55:56.820Z,75.90
2019-05-17T02:00:21.672Z,75.68
2019-05-17T02:04:46.749Z,75.73
2019-05-17T02:09:10.574Z,75.96
2019-05-17T02:13:34.430Z,75.88
2019-05-17T02:17:58.740Z,75.83
2019-05-17T02:22:22.921Z,76.01
2019-05-17T02:26:48.123Z,76.05
2019-05-17T02:31:13.554Z,76.11
2019-05-17T02:35:37.780Z,75.98
2019-05-17T02:40:07.202Z,76.09
2019-05-17T02:44:27.875Z,76.05
2019-05-17T02:48:53.803Z,76.00
2019-05-17T02:53:18.600Z,75.95
2019-05-17T02:57:43.633Z,76.00
2019-05-17T03:02:07.805Z,76.18
2019-05-17T03:06:32.888Z,76.06
2019-05-17T03:10:57.015Z,76.15
2019-05-17T03:15:23.370Z,76.45
2019-05-17T03:19:46.685Z,76.45
2019-05-17T03:24:13.759Z,76.34
2019-05-17T03:28:36.422Z,76.57
2019-05-17T03:33:07.436Z,76.51
2019-05-17T03:37:32.883Z,76.55
2019-05-17T03:41:53.769Z,76.50
2019-05-17T03:46:18.449Z,76.59
2019-05-17T03:50:43.575Z,76.78
2019-05-17T03:55:08.518Z,76.99
2019-05-17T03:59:33.796Z,77.06
2019-05-17T04:03:57.567Z,77.28
2019-05-17T04:08:23.004Z,77.07
2019-05-17T04:12:47.494Z,77.03
2019-05-17T04:17:13.082Z,77.18
2019-05-17T04:21:37.943Z,77.21
2019-05-17T04:26:04.117Z,77.28
2019-05-17T04:30:28.172Z,76.92
2019-05-17T04:34:52.672Z,77.00
2019-05-17T04:39:17.382Z,77.13
2019-05-17T04:43:42.412Z,77.11
2019-05-17T04:48:06.863Z,76.90
2019-05-17T04:52:33.655Z,76.87
2019-05-17T04:56:56.714Z,76.68
2019-05-17T05:01:23.623Z,76.75
2019-05-17T05:05:46.710Z,76.77
2019-05-17T05:10:13.525Z,76.84
2019-05-17T05:14:37.231Z,77.05
2019-05-17T05:19:02.959Z,76.90
2019-05-17T05:23:27.081Z,76.78
2019-05-17T05:27:51.668Z,76.57
2019-05-17T05:32:15.752Z,76.25
2019-05-17T05:36:41.722Z,75.80
2019-05-17T05:41:06.081Z,75.63
2019-05-17T05:45:32.098Z,75.26
2019-05-17T05:49:56.843Z,75.44
2019-05-17T05:54:22.530Z,75.07
2019-05-17T05:58:47.771Z,74.48
2019-05-17T06:03:12.418Z,74.16
2019-05-17T06:07:36.498Z,73.18
2019-05-17T06:12:02.436Z,72.41
2019-05-17T06:16:26.914Z,71.60
2019-05-17T06:20:52.375Z,71.33
2019-05-17T06:25:16.936Z,70.10
2019-05-17T06:29:41.542Z,69.72
2019-05-17T06:34:06.294Z,67.61
2019-05-17T06:38:32.643Z,66.41
2019-05-17T06:42:55.814Z,65.90
2019-05-17T06:47:19.619Z,64.93
2019-05-17T06:51:43.503Z,64.18
2019-05-17T06:56:07.858Z,63.94
2019-05-17T07:00:31.978Z,62.15
2019-05-17T07:04:57.458Z,60.81
2019-05-17T07:09:22.079Z,60.27
2019-05-17T07:13:46.104Z,60.32
2019-05-17T07:18:10.530Z,60.53
2019-05-17T07:22:34.726Z,60.36
2019-05-17T07:26:59.209Z,59.56
2019-05-17T07:31:23.672Z,59.77
2019-05-17T07:35:49.972Z,58.49
2019-05-17T07:40:14.375Z,58.16
2019-05-17T07:44:40.276Z,56.90
2019-05-17T07:49:04.186Z,56.90
2019-05-17T07:53:30.504Z,56.82
2019-05-17T07:57:54.097Z,56.39
2019-05-17T08:02:19.816Z,55.31
2019-05-17T08:06:44.021Z,56.13
2019-05-17T08:11:10.515Z,56.67
2019-05-17T08:15:33.928Z,57.17
2019-05-17T08:20:00.318Z,56.33
2019-05-17T08:24:23.865Z,56.27
2019-05-17T08:28:49.937Z,56.69
2019-05-17T08:33:13.488Z,56.46
2019-05-17T08:37:41.869Z,57.74
2019-05-17T08:42:03.484Z,58.53
2019-05-17T08:46:27.573Z,58.58
2019-05-17T08:50:51.552Z,58.58
2019-05-17T08:55:15.891Z,58.60
2019-05-17T08:59:40.413Z,58.86
2019-05-17T09:04:05.652Z,58.88
2019-05-17T09:08:30.102Z,59.33
2019-05-17T09:12:53.906Z,59.87
2019-05-17T09:17:19.414Z,59.95
2019-05-17T09:21:43.894Z,60.42
2019-05-17T09:26:09.918Z,60.42
2019-05-17T09:30:33.587Z,60.40
2019-05-17T09:34:57.395Z,60.00
2019-05-17T09:39:21.363Z,59.00
2019-05-17T09:43:45.474Z,59.77
2019-05-17T09:48:10.402Z,59.86
2019-05-17T09:52:34.475Z,59.84
2019-05-17T09:57:00.454Z,60.16
2019-05-17T10:01:24.782Z,59.73
2019-05-17T10:05:49.532Z,59.88
2019-05-17T10:10:14.176Z,59.31
2019-05-17T10:14:38.269Z,59.09
2019-05-17T10:19:02.793Z,58.94
2019-05-17T10:23:26.897Z,58.94
2019-05-17T10:27:50.774Z,59.52
2019-05-17T10:32:14.840Z,59.62
2019-05-17T10:36:40.152Z,59.57
2019-05-17T10:41:04.453Z,60.42
2019-05-17T10:45:30.498Z,60.48
2019-05-17T10:49:54.515Z,60.67
2019-05-17T10:54:20.700Z,60.66
2019-05-17T10:58:44.748Z,60.95
2019-05-17T11:03:09.766Z,61.07
2019-05-17T11:07:34.981Z,61.07
2019-05-17T11:11:58.858Z,61.39
2019-05-17T11:16:23.042Z,61.28
2019-05-17T11:20:47.462Z,61.30
2019-05-17T11:25:11.996Z,60.97
2019-05-17T11:29:35.942Z,61.07
2019-05-17T11:33:59.831Z,60.80
2019-05-17T11:38:24.036Z,60.35
2019-05-17T11:42:48.222Z,60.20
2019-05-17T11:47:12.182Z,60.51
2019-05-17T11:51:36.304Z,60.85
2019-05-17T11:56:00.497Z,60.72
2019-05-17T12:00:25.225Z,60.36
2019-05-17T12:04:50.362Z,60.29
2019-05-17T12:09:15.289Z,59.69
2019-05-17T12:13:39.398Z,60.05
2019-05-17T12:18:03.676Z,60.61
2019-05-17T12:22:28.964Z,61.21
2019-05-17T12:26:52.899Z,61.37
2019-05-17T12:31:18.095Z,61.50
2019-05-17T12:35:42.198Z,61.99
2019-05-17T12:40:09.544Z,62.55
2019-05-17T12:44:36.927Z,62.68
2019-05-17T12:49:01.939Z,63.18
2019-05-17T12:53:25.745Z,63.13
2019-05-17T12:57:49.955Z,62.67
2019-05-17T13:02:13.861Z,62.82
2019-05-17T13:06:37.704Z,62.02
2019-05-17T13:11:01.749Z,61.11
2019-05-17T13:15:26.384Z,60.95
2019-05-17T13:19:50.216Z,60.45
2019-05-17T13:24:14.481Z,60.89
2019-05-17T13:28:38.676Z,60.45
2019-05-17T13:33:02.858Z,59.94
2019-05-17T13:37:27.095Z,60.52
2019-05-17T13:41:51.545Z,60.40
2019-05-17T13:46:15.756Z,60.80
2019-05-17T13:50:39.698Z,60.71
2019-05-17T13:55:05.669Z,60.92
2019-05-17T13:59:29.653Z,60.54
2019-05-17T14:03:53.771Z,60.70
2019-05-17T14:08:19.466Z,60.65
2019-05-17T14:12:43.677Z,60.64
2019-05-17T14:17:07.569Z,60.62
2019-05-17T14:21:32.837Z,60.68
2019-05-17T14:25:56.961Z,60.42
2019-05-17T14:30:22.643Z,60.89
2019-05-17T14:34:46.496Z,62.03
2019-05-17T14:39:10.820Z,62.86
2019-05-17T14:43:34.966Z,63.31
2019-05-17T14:48:01.768Z,63.36
2019-05-17T14:52:25.891Z,64.10
2019-05-17T14:56:55.424Z,64.25
2019-05-17T15:01:19.837Z,64.18
2019-05-17T15:05:44.185Z,65.07
2019-05-17T15:10:09.048Z,65.68
2019-05-17T15:14:34.043Z,66.56
2019-05-17T15:18:58.271Z,67.04
2019-05-17T15:23:23.143Z,67.11
2019-05-17T15:27:48.169Z,67.05
2019-05-17T15:32:12.349Z,66.66
2019-05-17T15:36:36.561Z,66.28
2019-05-17T15:41:00.419Z,66.35
2019-05-17T15:45:24.327Z,66.33
2019-05-17T15:49:48.518Z,67.69
2019-05-17T15:54:12.717Z,66.47
2019-05-17T15:58:36.909Z,66.48
2019-05-17T16:03:00.776Z,66.88
2019-05-17T16:07:24.983Z,67.38
2019-05-17T16:11:48.867Z,67.34
2019-05-17T16:16:13.051Z,67.36
2019-05-17T16:20:36.926Z,68.45
2019-05-17T16:25:00.913Z,69.34
2019-05-17T16:29:25.019Z,69.37
2019-05-17T16:33:50.887Z,69.09
2019-05-17T16:38:15.083Z,68.83
2019-05-17T16:42:39.826Z,69.12
2019-05-17T16:47:04.053Z,69.51
2019-05-17T16:51:28.911Z,70.08
2019-05-17T16:55:53.025Z,69.09
2019-05-17T17:00:30.812Z,69.21
2019-05-17T17:04:54.843Z,70.60
2019-05-17T17:09:19.126Z,71.04
2019-05-17T17:13:43.296Z,70.59
2019-05-17T17:18:07.874Z,70.74
2019-05-17T17:22:33.068Z,70.19
2019-05-17T17:26:57.159Z,70.34
2019-05-17T17:31:21.405Z,69.98
2019-05-17T17:35:45.556Z,70.80
2019-05-17T17:40:10.272Z,70.23
2019-05-17T17:44:34.430Z,70.22
2019-05-17T17:48:59.318Z,70.63
2019-05-17T17:53:24.346Z,71.16
2019-05-17T17:57:49.761Z,71.53
2019-05-17T18:02:14.340Z,71.22
2019-05-17T18:06:38.455Z,70.88
2019-05-17T18:11:03.663Z,71.00
2019-05-17T18:15:39.972Z,71.44
2019-05-17T18:20:04.616Z,71.59
2019-05-17T18:24:28.825Z,71.95
2019-05-17T18:28:52.952Z,73.08
2019-05-17T18:33:17.779Z,73.08
2019-05-17T18:37:41.712Z,72.79
2019-05-17T18:42:05.935Z,72.44
2019-05-17T18:46:30.558Z,72.78
2019-05-17T18:50:54.919Z,72.44
2019-05-17T18:55:20.383Z,72.21
2019-05-17T18:59:44.448Z,72.73
2019-05-17T19:04:09.020Z,72.59
2019-05-17T19:08:37.371Z,72.66
2019-05-17T19:13:01.613Z,72.82
2019-05-17T19:17:25.522Z,72.96
2019-05-17T19:21:55.114Z,73.03
2019-05-17T19:26:20.105Z,72.89
2019-05-17T19:30:44.245Z,73.11
2019-05-17T19:35:09.015Z,73.01
2019-05-17T19:39:33.235Z,73.09
2019-05-17T19:43:58.667Z,73.33
2019-05-17T19:48:24.942Z,73.28
2019-05-17T19:52:49.023Z,73.85
2019-05-17T19:57:13.381Z,73.85
2019-05-17T20:01:37.280Z,73.65
2019-05-17T20:06:01.545Z,73.49
2019-05-17T20:10:25.903Z,73.99
2019-05-17T20:14:49.858Z,73.91
2019-05-17T20:19:14.109Z,73.78
2019-05-17T20:23:38.548Z,73.65
2019-05-17T20:28:02.391Z,73.59
2019-05-17T20:32:26.939Z,74.06
2019-05-17T20:36:50.951Z,74.61
2019-05-17T20:41:17.175Z,74.02
2019-05-17T20:45:41.375Z,73.92
2019-05-17T20:50:06.490Z,74.20
2019-05-17T20:54:30.870Z,74.21
2019-05-17T20:58:54.845Z,74.17
2019-05-17T21:03:19.064Z,74.21
2019-05-17T21:07:43.320Z,74.40
2019-05-17T21:12:07.739Z,74.37
2019-05-17T21:16:31.634Z,74.37
2019-05-17T21:20:56.440Z,74.32
2019-05-17T21:25:20.621Z,74.13
2019-05-17T21:29:44.945Z,74.23
2019-05-17T21:34:09.018Z,74.23
2019-05-17T21:38:32.822Z,74.08
2019-05-17T21:42:56.816Z,74.11
2019-05-17T21:47:20.672Z,74.15
2019-05-17T21:51:44.566Z,74.30
2019-05-17T21:56:08.808Z,74.51
2019-05-17T22:01:10.756Z,74.24
2019-05-17T22:05:35.531Z,74.53
2019-05-17T22:09:59.420Z,74.96
2019-05-17T22:14:24.539Z,75.07
2019-05-17T22:18:49.341Z,75.38
2019-05-17T22:23:13.831Z,75.58
2019-05-17T22:27:37.798Z,75.58
2019-05-17T22:32:01.674Z,76.01
2019-05-17T22:36:25.809Z,76.14
2019-05-17T22:40:50.637Z,76.49
2019-05-17T22:45:14.884Z,76.60
2019-05-17T22:49:38.988Z,76.67
2019-05-17T22:54:03.963Z,76.70
2019-05-17T22:58:29.860Z,76.81
2019-05-17T23:02:53.778Z,76.94
2019-05-17T23:07:18.473Z,77.01
2019-05-17T23:11:43.719Z,77.03
2019-05-17T23:16:10.659Z,77.26
2019-05-17T23:20:34.788Z,77.46
2019-05-17T23:25:00.217Z,77.43
2019-05-17T23:29:24.430Z,77.28
2019-05-17T23:33:49.842Z,77.27
2019-05-17T23:38:13.725Z,77.46
2019-05-17T23:42:37.952Z,77.34
2019-05-17T23:47:07.065Z,77.44
2019-05-17T23:51:28.261Z,77.59
2019-05-17T23:55:52.059Z,77.58
